Time;durP1;ratioP1;P1;durP2;ratioP2;P2;SDS_P1;SDS_P2;PMS_P1;PMS_P2;Temp;Humidity;BMP_temperature;BMP_pressure;BME280_temperature;BME280_humidity;BME280_pressure;Samples;Min_cycle;Max_cycle;Signal;HPM_P1;HPM_P2
2023/10/26 00:01:24;;;;;;;0.35;0.35;;;;;;;14.22;100.00;93755.97;5041147;28;20559;-75
2023/10/26 00:03:50;;;;;;;0.35;0.35;;;;;;;14.21;100.00;93757.13;5044128;28;20566;-72
2023/10/26 00:06:17;;;;;;;0.80;0.80;;;;;;;14.16;100.00;93773.03;5039485;28;20840;-73
2023/10/26 00:08:44;;;;;;;0.17;0.17;;;;;;;14.12;100.00;93783.09;5051249;28;20208;-75
2023/10/26 00:11:11;;;;;;;0.30;0.30;;;;;;;14.09;100.00;93781.88;5050626;28;20207;-74
2023/10/26 00:13:38;;;;;;;0.30;0.30;;;;;;;14.09;100.00;93779.16;5038366;28;20215;-74
2023/10/26 00:16:05;;;;;;;2.50;0.40;;;;;;;14.07;100.00;93786.94;5046825;28;20223;-73
2023/10/26 00:18:33;;;;;;;13.18;0.75;;;;;;;14.10;100.00;93775.28;5047762;28;20224;-72
2023/10/26 00:21:00;;;;;;;0.60;0.60;;;;;;;14.13;100.00;93758.22;5049451;28;20211;-72
2023/10/26 00:23:28;;;;;;;0.43;0.43;;;;;;;14.13;100.00;93751.97;5050581;28;20204;-72
2023/10/26 00:25:55;;;;;;;0.13;0.13;;;;;;;14.14;100.00;93756.28;5042559;28;20236;-74
2023/10/26 00:28:21;;;;;;;0.20;0.20;;;;;;;14.10;100.00;93753.50;5042502;28;20216;-72
2023/10/26 00:30:48;;;;;;;0.20;0.20;;;;;;;14.02;100.00;93735.53;5037280;28;20215;-76
2023/10/26 00:33:16;;;;;;;0.55;0.55;;;;;;;14.02;100.00;93746.41;5049146;28;20216;-73
2023/10/26 00:35:45;;;;;;;0.13;0.13;;;;;;;14.13;100.00;93751.97;5040319;28;20199;-72
2023/10/26 00:38:11;;;;;;;0.38;0.38;;;;;;;14.06;100.00;93751.91;5033778;28;20228;-73
2023/10/26 00:40:39;;;;;;;1.67;1.55;;;;;;;14.05;100.00;93769.41;5039443;28;20204;-72
2023/10/26 00:43:05;;;;;;;0.40;0.40;;;;;;;13.94;100.00;93766.53;5040787;28;20204;-72
2023/10/26 00:45:36;;;;;;;1.05;1.02;;;;;;;14.01;100.00;93758.47;5039895;28;20207;-71
2023/10/26 00:48:03;;;;;;;0.10;0.10;;;;;;;13.99;100.00;93757.25;5032307;28;20250;-72
2023/10/26 00:50:30;;;;;;;0.30;0.30;;;;;;;13.95;100.00;93768.09;5042473;28;20235;-73
2023/10/26 00:53:00;;;;;;;0.40;0.40;;;;;;;13.87;100.00;93761.78;5043770;28;20231;-72
2023/10/26 00:55:27;;;;;;;0.65;0.65;;;;;;;13.84;100.00;93761.72;5045320;28;20618;-71
2023/10/26 00:57:55;;;;;;;11.77;1.00;;;;;;;13.84;100.00;93742.66;5040795;28;20581;-72
2023/10/26 01:00:23;;;;;;;0.28;0.28;;;;;;;13.84;100.00;93750.84;5042403;28;20212;-72
2023/10/26 01:02:49;;;;;;;0.40;0.40;;;;;;;13.85;100.00;93757.84;5039321;28;20204;-74
2023/10/26 01:05:16;;;;;;;0.55;0.55;;;;;;;13.81;100.00;93740.69;5045522;28;20627;-72
2023/10/26 01:07:43;;;;;;;1.50;1.40;;;;;;;13.82;100.00;93750.41;5051748;28;20214;-71
2023/10/26 01:10:12;;;;;;;0.95;0.68;;;;;;;13.79;100.00;93737.56;5046053;28;20223;-71
2023/10/26 01:12:39;;;;;;;1.33;1.33;;;;;;;13.78;100.00;93741.44;5050156;28;20227;-74
2023/10/26 01:15:07;;;;;;;0.30;0.30;;;;;;;13.79;100.00;93743.81;5045993;28;20232;-71
2023/10/26 01:17:35;;;;;;;0.38;0.38;;;;;;;13.75;100.00;93758.50;5045108;28;20236;-71
2023/10/26 01:20:02;;;;;;;2.60;1.30;;;;;;;13.69;100.00;93743.63;5048869;28;20235;-71
2023/10/26 01:22:33;;;;;;;5.07;0.85;;;;;;;13.70;100.00;93745.22;5051580;28;20628;-72
2023/10/26 01:25:00;;;;;;;0.32;0.32;;;;;;;13.65;100.00;93742.81;5040793;28;20207;-73
2023/10/26 01:27:27;;;;;;;1.00;1.00;;;;;;;13.61;100.00;93725.66;5048578;28;20931;-72
2023/10/26 01:29:55;;;;;;;0.20;0.20;;;;;;;13.63;100.00;93737.75;5053632;28;20565;-76
2023/10/26 01:32:21;;;;;;;0.15;0.15;;;;;;;13.65;100.00;93731.94;5046252;28;20610;-76
2023/10/26 01:34:48;;;;;;;0.17;0.17;;;;;;;13.67;100.00;93746.72;5047001;28;20598;-76
2023/10/26 01:37:15;;;;;;;0.40;0.40;;;;;;;13.55;100.00;93732.56;5042423;28;20204;-75
2023/10/26 01:39:43;;;;;;;0.20;0.20;;;;;;;13.50;100.00;93758.16;5041413;28;20251;-74
2023/10/26 01:42:12;;;;;;;12.65;1.17;;;;;;;13.46;100.00;93751.88;5050151;28;20281;-75
2023/10/26 01:44:39;;;;;;;0.85;0.85;;;;;;;13.40;100.00;93754.13;5044083;28;20588;-75
2023/10/26 01:47:06;;;;;;;0.52;0.52;;;;;;;13.37;100.00;93752.16;5046131;28;20564;-74
2023/10/26 01:49:33;;;;;;;0.30;0.30;;;;;;;13.42;100.00;93749.09;5044632;28;20211;-75
2023/10/26 01:52:00;;;;;;;0.68;0.60;;;;;;;13.39;100.00;93765.41;5046440;28;20222;-75
2023/10/26 01:54:27;;;;;;;0.10;0.10;;;;;;;13.33;100.00;93737.72;5051172;28;20204;-75
2023/10/26 01:56:55;;;;;;;0.20;0.20;;;;;;;13.36;100.00;93742.41;5039187;28;20211;-75
2023/10/26 01:59:22;;;;;;;0.20;0.20;;;;;;;13.38;100.00;93751.00;5047286;28;20219;-74
2023/10/26 02:01:48;;;;;;;0.10;0.10;;;;;;;13.44;100.00;93757.69;5044694;28;20649;-75
2023/10/26 02:04:15;;;;;;;4.65;1.15;;;;;;;13.48;100.00;93753.09;5043551;28;20211;-74
2023/10/26 02:06:42;;;;;;;0.47;0.47;;;;;;;13.47;100.00;93759.69;5043481;28;20656;-75
2023/10/26 02:09:09;;;;;;;0.88;0.68;;;;;;;13.52;100.00;93762.09;5052417;28;20222;-73
2023/10/26 02:11:35;;;;;;;0.52;0.52;;;;;;;13.49;100.00;93735.63;5053506;28;20648;-75
2023/10/26 02:14:04;;;;;;;0.20;0.20;;;;;;;13.53;100.00;93752.75;5052784;28;20219;-74
2023/10/26 02:16:30;;;;;;;0.47;0.47;;;;;;;13.48;100.00;93744.94;5053579;28;20219;-74
2023/10/26 02:18:57;;;;;;;0.20;0.20;;;;;;;13.45;100.00;93720.38;5053203;28;20235;-73
2023/10/26 02:21:24;;;;;;;0.20;0.20;;;;;;;13.46;100.00;93730.91;5052978;28;20273;-75
2023/10/26 02:23:51;;;;;;;0.20;0.20;;;;;;;13.50;100.00;93742.63;5052516;28;20216;-75
2023/10/26 02:26:17;;;;;;;0.50;0.50;;;;;;;13.46;100.00;93736.34;5052857;28;20243;-74
2023/10/26 02:28:44;;;;;;;0.82;0.82;;;;;;;13.45;100.00;93729.34;5052801;28;20273;-75
2023/10/26 02:31:12;;;;;;;0.38;0.38;;;;;;;13.47;100.00;93740.63;5052574;28;20211;-75
2023/10/26 02:33:39;;;;;;;0.20;0.20;;;;;;;13.51;100.00;93736.03;5053043;28;21615;-77
2023/10/26 02:36:06;;;;;;;0.50;0.50;;;;;;;13.62;100.00;93738.13;5052619;28;20234;-76
2023/10/26 02:38:33;;;;;;;0.85;0.85;;;;;;;13.54;100.00;93737.22;5052799;28;20658;-76
2023/10/26 02:41:03;;;;;;;0.98;0.98;;;;;;;13.56;100.00;93739.56;5052554;28;20211;-75
2023/10/26 02:43:30;;;;;;;0.17;0.17;;;;;;;13.61;100.00;93725.66;5048583;28;20719;-76
2023/10/26 02:46:04;;;;;;;1.42;0.40;;;;;;;13.57;100.00;93730.25;5032834;28;20215;-75
2023/10/26 02:48:33;;;;;;;0.20;0.20;;;;;;;13.57;100.00;93719.38;5032594;28;20326;-76
2023/10/26 02:50:59;;;;;;;7.07;1.55;;;;;;;13.57;100.00;93720.16;5032179;28;20208;-74
2023/10/26 02:53:26;;;;;;;0.17;0.17;;;;;;;13.53;100.00;93728.25;5033010;28;20668;-75
2023/10/26 02:55:53;;;;;;;0.60;0.60;;;;;;;13.48;100.00;93739.50;5032331;28;20214;-74
2023/10/26 02:58:20;;;;;;;0.20;0.20;;;;;;;13.47;100.00;93743.34;5032539;28;20668;-75
2023/10/26 03:00:46;;;;;;;1.58;0.93;;;;;;;13.46;100.00;93741.78;5032230;28;20216;-76
2023/10/26 03:03:13;;;;;;;0.25;0.25;;;;;;;13.36;100.00;93753.31;5033115;28;20219;-76
2023/10/26 03:05:42;;;;;;;2.17;1.20;;;;;;;13.39;100.00;93768.88;5042085;28;20204;-76
2023/10/26 03:08:09;;;;;;;0.20;0.20;;;;;;;13.39;100.00;93763.44;5047158;28;20310;-77
2023/10/26 03:10:36;;;;;;;2.83;1.23;;;;;;;13.30;100.00;93738.44;5046804;28;20208;-75
2023/10/26 03:13:04;;;;;;;0.20;0.20;;;;;;;13.38;100.00;93745.56;5039082;28;20212;-77
2023/10/26 03:15:31;;;;;;;0.43;0.43;;;;;;;13.37;100.00;93760.31;5047712;28;20683;-76
2023/10/26 03:17:58;;;;;;;0.45;0.45;;;;;;;13.27;100.00;93738.38;5042266;28;20212;-75
2023/10/26 03:20:25;;;;;;;0.70;0.70;;;;;;;13.21;100.00;93751.53;5038438;28;20435;-76
2023/10/26 03:22:53;;;;;;;2.75;0.95;;;;;;;13.22;100.00;93755.03;5046410;28;20261;-76
2023/10/26 03:25:20;;;;;;;0.30;0.30;;;;;;;13.26;100.00;93759.34;5037559;28;20278;-76
2023/10/26 03:27:46;;;;;;;1.33;0.95;;;;;;;13.26;100.00;93745.75;5048385;28;20200;-75
2023/10/26 03:30:13;;;;;;;0.25;0.25;;;;;;;13.23;100.00;93753.88;5039808;28;20200;-75
2023/10/26 03:32:40;;;;;;;0.20;0.20;;;;;;;13.21;100.00;93756.97;5039552;28;20209;-76
2023/10/26 03:35:08;;;;;;;0.40;0.40;;;;;;;13.23;100.00;93754.66;5041589;28;20928;-75
2023/10/26 03:37:36;;;;;;;0.40;0.40;;;;;;;13.26;100.00;93725.94;5046787;28;20241;-76
2023/10/26 03:40:05;;;;;;;0.20;0.20;;;;;;;13.25;100.00;93727.09;5049560;28;20227;-76
2023/10/26 03:42:32;;;;;;;0.20;0.20;;;;;;;13.19;100.00;93732.06;5037068;28;20571;-75
2023/10/26 03:44:58;;;;;;;0.30;0.30;;;;;;;13.15;100.00;93721.13;5043526;28;20236;-75
2023/10/26 03:47:25;;;;;;;10.63;0.55;;;;;;;13.21;100.00;93723.53;5038868;28;20216;-75
2023/10/26 03:49:52;;;;;;;2.80;0.65;;;;;;;13.17;100.00;93723.47;5047193;28;20269;-75
2023/10/26 03:52:20;;;;;;;0.43;0.43;;;;;;;13.09;100.00;93705.47;5041840;28;20226;-75
2023/10/26 03:54:46;;;;;;;3.60;1.48;;;;;;;13.21;100.00;93705.28;5044101;28;20633;-76
2023/10/26 03:57:15;;;;;;;0.20;0.20;;;;;;;13.20;100.00;93701.00;5040213;28;20282;-75
2023/10/26 03:59:42;;;;;;;1.40;0.90;;;;;;;13.12;100.00;93705.50;5046763;28;20318;-79
2023/10/26 04:02:10;;;;;;;0.43;0.43;;;;;;;13.13;100.00;93707.06;5047222;28;20192;-76
2023/10/26 04:04:37;;;;;;;0.40;0.40;;;;;;;13.20;100.00;93695.56;5048953;28;20284;-77
2023/10/26 04:07:04;;;;;;;0.40;0.40;;;;;;;13.33;100.00;93701.56;5039560;28;20637;-75
2023/10/26 04:09:31;;;;;;;0.20;0.20;;;;;;;13.23;100.00;93689.38;5045663;28;20206;-76
2023/10/26 04:11:58;;;;;;;0.10;0.10;;;;;;;13.26;100.00;93694.06;5048149;28;20210;-78
2023/10/26 04:14:26;;;;;;;0.60;0.60;;;;;;;13.31;100.00;93698.41;5031739;28;20671;-76
2023/10/26 04:16:53;;;;;;;0.20;0.20;;;;;;;13.24;100.00;93710.00;5046818;28;20208;-77
2023/10/26 04:19:20;;;;;;;0.50;0.50;;;;;;;13.28;100.00;93718.19;5048270;28;20230;-77
2023/10/26 04:21:46;;;;;;;0.85;0.85;;;;;;;13.30;100.00;93713.94;5050877;28;20211;-77
2023/10/26 04:24:14;;;;;;;0.70;0.40;;;;;;;13.31;100.00;93723.69;5050689;28;20212;-74
2023/10/26 04:26:42;;;;;;;0.30;0.30;;;;;;;13.28;100.00;93724.41;5048891;28;20347;-74
2023/10/26 04:29:09;;;;;;;0.20;0.20;;;;;;;13.30;100.00;93722.13;5048817;28;20200;-74
2023/10/26 04:31:37;;;;;;;0.20;0.20;;;;;;;13.39;100.00;93708.28;5049812;28;20207;-73
2023/10/26 04:34:04;;;;;;;0.20;0.20;;;;;;;13.35;100.00;93724.53;5050582;28;20214;-74
2023/10/26 04:36:32;;;;;;;0.45;0.45;;;;;;;13.33;100.00;93718.66;5050744;28;20303;-73
2023/10/26 04:38:59;;;;;;;0.63;0.63;;;;;;;13.47;100.00;93709.91;5050214;28;20219;-74
2023/10/26 04:41:26;;;;;;;0.20;0.20;;;;;;;13.51;100.00;93711.56;5051054;28;20212;-74
2023/10/26 04:43:52;;;;;;;0.20;0.20;;;;;;;13.58;100.00;93705.41;5043886;28;20209;-75
2023/10/26 04:46:19;;;;;;;1.27;1.05;;;;;;;13.62;100.00;93716.34;5030902;28;20668;-74
2023/10/26 04:48:47;;;;;;;0.50;0.50;;;;;;;13.61;100.00;93714.78;5030804;28;20290;-74
2023/10/26 04:51:14;;;;;;;0.20;0.20;;;;;;;13.59;100.00;93706.19;5030600;28;20625;-75
2023/10/26 04:53:41;;;;;;;0.35;0.35;;;;;;;13.52;100.00;93702.25;5030480;28;20281;-74
2023/10/26 04:56:10;;;;;;;0.25;0.25;;;;;;;13.54;100.00;93707.28;5045157;28;20264;-74
2023/10/26 04:58:37;;;;;;;0.30;0.30;;;;;;;13.49;100.00;93708.41;5050626;28;20614;-74
2023/10/26 05:01:05;;;;;;;0.32;0.32;;;;;;;13.49;100.00;93713.84;5034574;28;20584;-74
2023/10/26 05:03:32;;;;;;;0.35;0.35;;;;;;;13.51;100.00;93716.19;5030529;28;20212;-74
2023/10/26 05:06:00;;;;;;;0.30;0.30;;;;;;;13.49;100.00;93719.28;5030584;28;20213;-74
2023/10/26 05:08:27;;;;;;;0.20;0.20;;;;;;;13.53;100.00;93720.09;5030738;28;20575;-74
2023/10/26 05:10:53;;;;;;;0.90;0.65;;;;;;;13.55;100.00;93716.22;5045486;28;20203;-74
2023/10/26 05:13:21;;;;;;;0.20;0.20;;;;;;;13.57;100.00;93716.66;5050500;28;20265;-74
2023/10/26 05:15:48;;;;;;;0.20;0.20;;;;;;;13.59;100.00;93711.63;5050362;28;20265;-74
2023/10/26 05:18:15;;;;;;;0.22;0.22;;;;;;;13.70;100.00;93723.44;5050243;28;20208;-74
2023/10/26 05:20:48;;;;;;;0.40;0.40;;;;;;;13.75;100.00;93728.56;5049921;28;20277;-74
2023/10/26 05:23:17;;;;;;;0.43;0.43;;;;;;;13.79;100.00;93732.13;5050681;28;20203;-74
2023/10/26 05:25:43;;;;;;;0.20;0.20;;;;;;;13.82;100.00;93736.81;5049972;28;20723;-74
2023/10/26 05:28:10;;;;;;;0.38;0.38;;;;;;;13.95;100.00;93729.97;5050266;28;20620;-74
2023/10/26 05:30:37;;;;;;;0.30;0.30;;;;;;;14.08;100.00;93728.56;5050073;28;20208;-74
2023/10/26 05:33:04;;;;;;;2.00;1.00;;;;;;;14.11;100.00;93733.28;5038615;28;20200;-76
2023/10/26 05:35:31;;;;;;;0.47;0.47;;;;;;;14.28;100.00;93747.47;5030855;28;20215;-77
2023/10/26 05:37:58;;;;;;;0.20;0.20;;;;;;;14.40;100.00;93744.53;5034243;28;20208;-76
2023/10/26 05:40:26;;;;;;;2.80;1.25;;;;;;;15.09;100.00;93747.53;5033339;28;20715;-77
2023/10/26 05:42:53;;;;;;;0.30;0.30;;;;;;;15.72;100.00;93736.28;5034143;28;20204;-77
2023/10/26 05:45:20;;;;;;;0.32;0.32;;;;;;;16.14;100.00;93741.19;5052702;28;20200;-77
2023/10/26 05:47:51;;;;;;;0.50;0.50;;;;;;;16.05;100.00;93748.94;5053858;28;20203;-77
2023/10/26 05:50:18;;;;;;;0.20;0.20;;;;;;;16.32;100.00;93746.72;5053419;28;20204;-77
2023/10/26 05:52:45;;;;;;;0.20;0.20;;;;;;;16.47;100.00;93748.34;5053710;28;20210;-77
2023/10/26 05:55:12;;;;;;;0.40;0.40;;;;;;;16.37;100.00;93751.03;5053186;28;20207;-77
2023/10/26 05:57:40;;;;;;;0.63;0.40;;;;;;;16.68;100.00;93770.28;5053736;28;20211;-76
2023/10/26 06:00:09;;;;;;;2.45;1.27;;;;;;;16.42;100.00;93772.50;5053608;28;20232;-77
2023/10/26 06:02:36;;;;;;;0.35;0.35;;;;;;;16.49;100.00;93783.50;5053849;28;20604;-77
2023/10/26 06:05:03;;;;;;;0.98;0.93;;;;;;;16.41;100.00;93781.88;5042915;28;20204;-77
2023/10/26 06:07:30;;;;;;;0.30;0.30;;;;;;;16.11;100.00;93769.28;5052243;28;20214;-78
2023/10/26 06:09:57;;;;;;;0.15;0.15;;;;;;;15.97;100.00;93780.16;5052721;28;20214;-78
2023/10/26 06:12:24;;;;;;;0.63;0.57;;;;;;;15.69;100.00;93786.22;5042329;28;20247;-77
2023/10/26 06:14:52;;;;;;;0.90;0.50;;;;;;;15.45;100.00;93795.75;5050012;28;20191;-78
2023/10/26 06:17:19;;;;;;;0.63;0.60;;;;;;;15.31;100.00;93786.69;5048608;28;20218;-79
2023/10/26 06:19:46;;;;;;;2.35;0.47;;;;;;;15.31;100.00;93787.44;5053546;28;20238;-78
2023/10/26 06:22:12;;;;;;;0.30;0.30;;;;;;;15.20;100.00;93770.22;5053261;28;20208;-79
2023/10/26 06:24:39;;;;;;;0.60;0.47;;;;;;;15.22;100.00;93774.13;5053039;28;20219;-78
2023/10/26 06:27:07;;;;;;;0.68;0.68;;;;;;;15.18;100.00;93773.31;5052398;28;20243;-77
2023/10/26 06:29:34;;;;;;;0.22;0.22;;;;;;;15.24;100.00;93777.28;5053349;28;20541;-80
2023/10/26 06:32:02;;;;;;;1.10;1.00;;;;;;;15.30;100.00;93780.44;5050143;28;20212;-77
2023/10/26 06:34:30;;;;;;;0.40;0.40;;;;;;;15.46;100.00;93780.94;5033314;28;20564;-78
2023/10/26 06:36:57;;;;;;;0.73;0.73;;;;;;;15.55;100.00;93788.84;5032984;28;20212;-78
2023/10/26 06:39:24;;;;;;;0.38;0.38;;;;;;;15.44;100.00;93791.47;5032677;28;20219;-77
2023/10/26 06:41:51;;;;;;;0.20;0.20;;;;;;;15.55;100.00;93792.38;5032638;28;20327;-77
2023/10/26 06:44:18;;;;;;;5.38;0.77;;;;;;;15.52;100.00;93787.63;5043320;28;20219;-77
2023/10/26 06:46:45;;;;;;;9.43;1.02;;;;;;;15.83;100.00;93788.25;5051128;28;20505;-77
2023/10/26 06:49:13;;;;;;;0.57;0.57;;;;;;;16.00;100.00;93785.59;5053061;28;20208;-77
2023/10/26 06:51:40;;;;;;;3.03;1.20;;;;;;;16.06;100.00;93777.84;5052572;28;20235;-77
2023/10/26 06:54:07;;;;;;;2.75;0.90;;;;;;;16.44;100.00;93786.59;5052326;28;20218;-77
2023/10/26 06:56:36;;;;;;;0.60;0.60;;;;;;;16.37;100.00;93781.09;5052745;28;20204;-78
2023/10/26 06:59:03;;;;;;;0.30;0.30;;;;;;;16.49;100.00;93789.75;5052506;28;20282;-77
2023/10/26 07:01:31;;;;;;;0.30;0.30;;;;;;;16.26;100.00;93781.81;5052705;28;20307;-77
2023/10/26 07:03:58;;;;;;;0.30;0.30;;;;;;;16.23;100.00;93818.13;5050816;28;20215;-77
2023/10/26 07:06:26;;;;;;;2.47;1.02;;;;;;;16.27;100.00;93799.00;5052076;28;20242;-75
2023/10/26 07:08:53;;;;;;;0.45;0.45;;;;;;;16.56;100.00;93794.44;5052496;28;20203;-76
2023/10/26 07:11:20;;;;;;;0.20;0.20;;;;;;;16.49;100.00;93802.63;5052426;28;20273;-75
2023/10/26 07:13:46;;;;;;;0.35;0.35;;;;;;;16.34;100.00;93788.13;5052563;28;20626;-75
2023/10/26 07:16:13;;;;;;;0.20;0.20;;;;;;;16.52;100.00;93804.59;5046571;28;20568;-75
2023/10/26 07:18:40;;;;;;;0.35;0.35;;;;;;;16.60;100.00;93787.81;5032565;28;20213;-75
2023/10/26 07:21:08;;;;;;;0.50;0.50;;;;;;;16.56;100.00;93789.75;5031631;28;20616;-74
2023/10/26 07:23:36;;;;;;;0.65;0.65;;;;;;;16.52;100.00;93777.25;5032728;28;20661;-74
2023/10/26 07:26:03;;;;;;;0.10;0.10;;;;;;;16.58;100.00;93775.69;5031666;28;20301;-75
2023/10/26 07:28:30;;;;;;;4.07;1.17;;;;;;;16.82;100.00;93768.75;5044514;28;20299;-74
2023/10/26 07:30:58;;;;;;;0.45;0.45;;;;;;;16.47;100.00;93758.47;5051796;28;20218;-75
2023/10/26 07:33:26;;;;;;;0.63;0.63;;;;;;;16.39;100.00;93778.78;5051381;28;20207;-75
2023/10/26 07:35:55;;;;;;;1.65;0.88;;;;;;;16.71;100.00;93796.09;5052578;28;20223;-75
2023/10/26 07:38:24;;;;;;;2.40;0.88;;;;;;;16.43;100.00;93763.16;5051817;28;20313;-74
2023/10/26 07:40:54;;;;;;;0.70;0.70;;;;;;;16.32;100.00;93763.91;5051588;28;20323;-74
2023/10/26 07:43:20;;;;;;;0.30;0.30;;;;;;;16.42;100.00;93767.03;5051362;28;20291;-75
2023/10/26 07:45:49;;;;;;;1.35;0.50;;;;;;;16.42;100.00;93777.97;5042310;28;20212;-75
2023/10/26 07:48:16;;;;;;;1.35;0.85;;;;;;;16.46;100.00;93759.66;5031939;28;20299;-76
2023/10/26 07:50:43;;;;;;;0.30;0.30;;;;;;;16.55;100.00;93760.06;5032340;28;20243;-75
2023/10/26 07:53:10;;;;;;;0.75;0.43;;;;;;;16.68;100.00;93769.50;5031201;28;20204;-75
2023/10/26 07:55:37;;;;;;;1.17;1.10;;;;;;;16.80;100.00;93755.47;5032001;28;20212;-75
2023/10/26 07:58:05;;;;;;;0.32;0.32;;;;;;;16.92;100.00;93757.84;5030992;28;20227;-76
2023/10/26 08:00:32;;;;;;;3.78;1.52;;;;;;;17.34;100.00;93748.09;5031256;28;20255;-77
2023/10/26 08:02:59;;;;;;;2.38;1.42;;;;;;;17.42;100.00;93744.16;5031497;28;20216;-78
2023/10/26 08:05:26;;;;;;;0.45;0.45;;;;;;;17.16;100.00;93734.41;5044185;28;20196;-79
2023/10/26 08:07:53;;;;;;;0.65;0.52;;;;;;;17.21;100.00;93746.94;5051022;28;20208;-78
2023/10/26 08:10:20;;;;;;;0.65;0.65;;;;;;;17.36;100.00;93753.94;5051226;28;20211;-78
2023/10/26 08:12:47;;;;;;;0.43;0.43;;;;;;;17.17;100.00;93732.44;5051517;28;20230;-79
2023/10/26 08:15:15;;;;;;;3.30;0.60;;;;;;;17.21;100.00;93733.25;5051240;28;20607;-77
2023/10/26 08:17:42;;;;;;;1.83;1.17;;;;;;;17.28;100.00;93735.97;5050950;28;20208;-77
2023/10/26 08:20:09;;;;;;;0.55;0.40;;;;;;;17.44;100.00;93741.81;5051108;28;20597;-76
2023/10/26 08:22:36;;;;;;;2.08;1.63;;;;;;;17.49;100.00;93740.66;5051195;28;20204;-77
2023/10/26 08:25:03;;;;;;;5.25;1.45;;;;;;;17.41;100.00;93742.59;5051140;28;20345;-76
2023/10/26 08:27:31;;;;;;;1.65;1.33;;;;;;;17.15;100.00;93732.84;5050565;28;20242;-77
2023/10/26 08:29:58;;;;;;;0.50;0.50;;;;;;;16.94;100.00;93728.16;5051028;28;20215;-77
2023/10/26 08:32:26;;;;;;;4.22;1.77;;;;;;;16.81;100.00;93729.66;5050764;28;20215;-77
2023/10/26 08:34:53;;;;;;;2.13;1.38;;;;;;;16.88;100.00;93735.16;5051298;28;20211;-77
2023/10/26 08:37:19;;;;;;;7.40;1.80;;;;;;;17.03;100.00;93728.53;5029813;28;20684;-78
2023/10/26 08:39:46;;;;;;;1.00;0.98;;;;;;;16.90;100.00;93721.88;5031105;28;20219;-77
2023/10/26 08:42:13;;;;;;;1.08;0.82;;;;;;;17.05;100.00;93726.19;5030803;28;20235;-78
2023/10/26 08:44:42;;;;;;;0.40;0.40;;;;;;;17.35;100.00;93738.72;5044508;28;20207;-77
2023/10/26 08:47:12;;;;;;;1.77;0.70;;;;;;;17.39;100.00;93725.78;5050745;28;20235;-78
2023/10/26 08:49:44;;;;;;;2.60;1.58;;;;;;;17.43;100.00;93718.34;5050399;28;20218;-79
2023/10/26 08:52:11;;;;;;;2.70;0.82;;;;;;;18.41;100.00;93702.81;5051177;28;20611;-78
2023/10/26 08:54:38;;;;;;;4.03;1.73;;;;;;;18.72;100.00;93705.81;5051470;28;20587;-76
2023/10/26 08:57:07;;;;;;;1.55;1.30;;;;;;;19.01;100.00;93701.66;5050649;28;20303;-77
2023/10/26 08:59:34;;;;;;;0.95;0.95;;;;;;;18.68;100.00;93694.06;5050739;28;20342;-77
2023/10/26 09:02:01;;;;;;;0.45;0.45;;;;;;;18.58;100.00;93675.69;5040873;28;20656;-77
2023/10/26 09:04:28;;;;;;;3.17;1.70;;;;;;;18.56;100.00;93680.78;5030793;28;20212;-77
2023/10/26 09:06:56;;;;;;;2.95;0.43;;;;;;;18.70;100.00;93680.75;5031140;28;20203;-77
2023/10/26 09:09:23;;;;;;;2.20;1.92;;;;;;;18.84;100.00;93672.41;5048050;28;20211;-77
2023/10/26 09:11:50;;;;;;;1.10;0.75;;;;;;;18.84;100.00;93668.88;5055145;28;20638;-76
2023/10/26 09:14:18;;;;;;;1.13;0.45;;;;;;;19.02;100.00;93681.28;5054816;28;20231;-76
2023/10/26 09:16:46;;;;;;;0.40;0.40;;;;;;;19.05;100.00;93680.47;5054749;28;20210;-77
2023/10/26 09:19:13;;;;;;;0.32;0.32;;;;;;;19.17;100.00;93676.44;5054627;28;20208;-76
2023/10/26 09:21:51;;;;;;;0.75;0.55;;;;;;;19.45;100.00;93675.41;5054999;28;20239;-76
2023/10/26 09:24:25;;;;;;;2.28;1.33;;;;;;;19.72;100.00;93662.59;5054272;28;20214;-76
2023/10/26 09:26:53;;;;;;;0.30;0.30;;;;;;;20.00;100.00;93667.00;5054259;28;20636;-77
2023/10/26 09:29:22;;;;;;;0.68;0.68;;;;;;;20.31;100.00;93662.31;5040966;28;20208;-76
2023/10/26 09:31:53;;;;;;;1.60;1.27;;;;;;;20.62;100.00;93663.09;5054163;28;20208;-76
2023/10/26 09:34:23;;;;;;;1.13;0.75;;;;;;;20.86;100.00;93661.16;5054018;28;20211;-76
2023/10/26 09:37:00;;;;;;;1.25;0.98;;;;;;;20.86;100.00;93661.16;5054288;28;20215;-77
2023/10/26 09:39:30;;;;;;;0.38;0.38;;;;;;;21.19;100.00;93663.00;5053841;28;20211;-78
2023/10/26 09:42:00;;;;;;;0.20;0.20;;;;;;;21.28;100.00;93666.03;5049970;28;20324;-78
2023/10/26 09:44:27;;;;;;;0.43;0.43;;;;;;;22.00;66.41;93662.81;5045874;28;20545;-76
2023/10/26 09:46:54;;;;;;;0.98;0.57;;;;;;;22.46;65.39;93661.84;5054014;28;20208;-78
2023/10/26 09:49:21;;;;;;;0.35;0.35;;;;;;;22.44;61.77;93650.44;5054031;28;20199;-78
2023/10/26 09:51:48;;;;;;;0.43;0.40;;;;;;;22.72;61.37;93645.50;5053757;28;20204;-77
2023/10/26 09:54:17;;;;;;;2.50;1.45;;;;;;;22.58;59.78;93641.06;5054330;28;20200;-77
2023/10/26 09:56:50;;;;;;;0.57;0.50;;;;;;;22.68;58.91;93632.56;5053711;28;20212;-78
2023/10/26 09:59:17;;;;;;;0.68;0.50;;;;;;;23.06;58.89;93636.88;5048755;28;20196;-76
2023/10/26 10:01:45;;;;;;;1.15;0.90;;;;;;;22.97;55.70;93620.88;5053655;28;20333;-76
2023/10/26 10:04:13;;;;;;;0.73;0.73;;;;;;;22.82;53.01;93609.41;5046889;28;20660;-78
2023/10/26 10:06:51;;;;;;;1.60;1.15;;;;;;;22.42;55.12;93605.94;5039984;28;20236;-76
2023/10/26 10:09:20;;;;;;;1.05;0.93;;;;;;;22.55;54.71;93606.81;5040429;28;20212;-76
2023/10/26 10:12:27;;;;;;;0.82;0.80;;;;;;;22.51;50.73;93611.66;5041334;28;20200;-77
2023/10/26 10:15:00;;;;;;;1.92;0.73;;;;;;;22.31;52.30;93597.13;5039197;28;20661;-74
2023/10/26 10:18:15;;;;;;;1.15;0.90;;;;;;;22.70;52.49;93601.75;5049927;28;20230;-78
2023/10/26 10:20:42;;;;;;;1.17;1.02;;;;;;;22.79;52.17;93596.47;5046932;28;20560;-76
2023/10/26 10:23:21;;;;;;;1.08;0.60;;;;;;;22.50;50.48;93609.31;5043150;28;20219;-78
2023/10/26 10:26:00;;;;;;;1.63;0.70;;;;;;;22.46;51.88;93590.06;5048174;28;20235;-76
2023/10/26 10:31:40;;;;;;;1.10;0.50;;;;;;;23.52;48.21;93588.72;5042128;28;20278;-78
2023/10/26 10:34:10;;;;;;;2.58;0.80;;;;;;;23.36;47.96;93593.06;5046545;28;20216;-78
2023/10/26 10:37:12;;;;;;;1.05;0.80;;;;;;;23.47;49.74;93605.81;5042309;28;20216;-77
2023/10/26 10:39:39;;;;;;;1.77;0.80;;;;;;;22.91;49.61;93595.00;5036499;28;20238;-78
2023/10/26 10:42:11;;;;;;;0.88;0.65;;;;;;;22.86;48.25;93581.69;5038965;28;20909;-79
2023/10/26 10:44:41;;;;;;;0.77;0.60;;;;;;;23.22;48.60;93576.84;5047159;28;20299;-78
2023/10/26 10:47:07;;;;;;;4.85;0.80;;;;;;;23.79;48.43;93575.34;5039929;28;20220;-76
2023/10/26 10:49:35;;;;;;;0.57;0.57;;;;;;;23.73;49.22;93546.69;5034462;28;20207;-75
2023/10/26 10:52:12;;;;;;;5.22;1.40;;;;;;;23.96;47.57;93557.47;5041358;28;20219;-75
2023/10/26 10:54:49;;;;;;;0.47;0.47;;;;;;;24.26;47.61;93570.06;5042513;28;20610;-77
2023/10/26 10:57:15;;;;;;;2.05;0.75;;;;;;;24.14;47.61;93551.41;5045592;28;20232;-78
2023/10/26 10:59:44;;;;;;;3.85;0.77;;;;;;;24.36;48.44;93568.19;5040349;28;20200;-77
2023/10/26 11:02:12;;;;;;;1.00;0.90;;;;;;;24.62;47.33;93569.75;5036769;28;20220;-79
2023/10/26 11:04:56;;;;;;;1.60;0.95;;;;;;;25.07;46.36;93560.44;5041066;28;20204;-78
2023/10/26 11:07:26;;;;;;;2.28;0.68;;;;;;;25.11;46.84;93558.34;5037668;28;20239;-77
2023/10/26 11:09:56;;;;;;;0.85;0.70;;;;;;;24.99;46.79;93562.69;5045748;28;20265;-78
2023/10/26 11:12:23;;;;;;;0.77;0.70;;;;;;;24.98;46.00;93552.03;5043843;28;20258;-78
2023/10/26 11:14:54;;;;;;;0.70;0.70;;;;;;;24.99;45.50;93556.34;5040901;28;20607;-77
2023/10/26 11:17:22;;;;;;;1.10;0.60;;;;;;;25.13;45.70;93547.56;5034833;28;20418;-78
2023/10/26 11:19:49;;;;;;;1.15;1.05;;;;;;;24.79;44.89;93557.34;5045975;28;20246;-78
2023/10/26 11:22:18;;;;;;;1.17;0.93;;;;;;;24.79;46.47;93546.25;5035125;28;20708;-78
2023/10/26 11:24:46;;;;;;;1.17;0.88;;;;;;;24.63;45.06;93535.28;5034591;28;20291;-79
2023/10/26 11:27:15;;;;;;;1.20;0.70;;;;;;;24.39;46.77;93557.00;5037624;28;20289;-77
2023/10/26 11:29:43;;;;;;;0.80;0.70;;;;;;;24.39;48.27;93557.00;5042056;28;20226;-76
2023/10/26 11:32:22;;;;;;;1.33;0.65;;;;;;;24.43;48.32;93545.84;5036906;28;20671;-77
2023/10/26 11:35:07;;;;;;;0.80;0.65;;;;;;;24.08;48.13;93531.03;5041502;28;20196;-79